Time;durP1;ratioP1;P1;durP2;ratioP2;P2;SDS_P1;SDS_P2;PMS_P1;PMS_P2;Temp;Humidity;BMP_temperature;BMP_pressure;BME280_temperature;BME280_humidity;BME280_pressure;Samples;Min_cycle;Max_cycle;Signal;HPM_P1;HPM_P2
2021/03/27 00:02:32;;;;;;;7.32;6.63;;;13.00;90.80;;;;;;5108347;28;20191;-52
2021/03/27 00:05:05;;;;;;;6.95;6.25;;;13.10;90.80;;;;;;5089797;27;20198;-52
2021/03/27 00:07:57;;;;;;;6.70;6.10;;;13.30;91.00;;;;;;5109198;28;20180;-52
2021/03/27 00:10:28;;;;;;;7.07;6.05;;;13.00;90.70;;;;;;5094143;28;20182;-52
2021/03/27 00:13:29;;;;;;;8.32;6.80;;;13.20;90.90;;;;;;5103773;27;20199;-52
2021/03/27 00:16:08;;;;;;;6.78;6.07;;;13.10;91.10;;;;;;5102100;27;20209;-52
2021/03/27 00:18:45;;;;;;;6.15;5.57;;;13.30;91.60;;;;;;5112302;27;20207;-52
2021/03/27 00:21:24;;;;;;;5.25;4.75;;;13.20;91.60;;;;;;5098600;28;20186;-52
2021/03/27 00:24:13;;;;;;;5.97;4.72;;;13.20;91.30;;;;;;5096964;27;20229;-52
2021/03/27 00:26:46;;;;;;;4.93;4.45;;;13.40;91.30;;;;;;5096026;27;20187;-52
2021/03/27 00:29:23;;;;;;;6.53;4.25;;;13.20;91.20;;;;;;5094796;27;20215;-52
2021/03/27 00:31:55;;;;;;;5.97;4.55;;;13.30;91.10;;;;;;5104826;27;20190;-52
2021/03/27 00:34:25;;;;;;;4.68;4.18;;;13.20;91.10;;;;;;5097250;28;20695;-52
2021/03/27 00:36:55;;;;;;;4.53;4.13;;;13.30;91.40;;;;;;5095796;28;20179;-52
2021/03/27 00:39:32;;;;;;;4.53;4.13;;;13.40;91.70;;;;;;5093991;27;20203;-52
2021/03/27 00:42:23;;;;;;;4.85;4.30;;;13.20;91.80;;;;;;5093366;28;20714;-52
2021/03/27 00:44:57;;;;;;;5.35;4.85;;;13.20;92.00;;;;;;5087949;27;20683;-52
2021/03/27 00:47:27;;;;;;;5.20;4.70;;;13.10;92.20;;;;;;5098989;27;20191;-52
2021/03/27 00:50:08;;;;;;;4.25;3.85;;;13.20;92.50;;;;;;5093777;28;20259;-51
2021/03/27 00:52:37;;;;;;;4.40;4.00;;;13.20;92.70;;;;;;5104952;27;20595;-52
2021/03/27 00:55:09;;;;;;;6.45;5.85;;;13.20;92.90;;;;;;5107772;27;20186;-52
2021/03/27 00:57:51;;;;;;;4.95;4.43;;;13.00;93.30;;;;;;5110785;27;20190;-50
2021/03/27 01:00:39;;;;;;;4.88;4.35;;;13.10;93.40;;;;;;5113063;27;20185;-52
2021/03/27 01:03:12;;;;;;;5.60;4.55;;;12.80;92.80;;;;;;5109179;27;20667;-52
2021/03/27 01:05:38;;;;;;;5.43;4.25;;;13.10;92.80;;;;;;5107855;27;20186;-51
2021/03/27 01:08:07;;;;;;;4.90;4.35;;;13.00;92.70;;;;;;5095202;28;20195;-51
2021/03/27 01:10:46;;;;;;;4.55;4.15;;;13.10;93.10;;;;;;5101567;27;20635;-52
2021/03/27 01:13:17;;;;;;;5.25;4.18;;;12.80;93.40;;;;;;5103261;28;20676;-52
2021/03/27 01:15:55;;;;;;;4.80;4.00;;;12.90;94.40;;;;;;5100799;27;20313;-52
2021/03/27 01:18:28;;;;;;;4.88;4.40;;;12.60;94.90;;;;;;5099559;27;20206;-52
2021/03/27 01:20:59;;;;;;;6.10;4.47;;;12.60;95.20;;;;;;5105722;28;20202;-51
2021/03/27 01:23:25;;;;;;;4.68;4.28;;;12.60;95.90;;;;;;5103293;27;20205;-52
2021/03/27 01:25:58;;;;;;;4.80;4.30;;;12.60;96.40;;;;;;5100870;28;20682;-52
2021/03/27 01:28:23;;;;;;;4.57;4.13;;;12.70;96.80;;;;;;5099154;27;20731;-51
2021/03/27 01:31:15;;;;;;;5.93;4.73;;;12.50;97.50;;;;;;5104171;27;20265;-52
2021/03/27 01:33:53;;;;;;;5.03;4.53;;;12.30;97.60;;;;;;5105394;27;20231;-52
2021/03/27 01:36:30;;;;;;;5.32;4.40;;;12.30;97.90;;;;;;5099447;27;20194;-52
2021/03/27 01:38:57;;;;;;;5.88;4.22;;;12.30;98.10;;;;;;5116479;27;20253;-51
2021/03/27 01:41:47;;;;;;;5.78;4.60;;;12.50;98.40;;;;;;5096147;27;20182;-52
2021/03/27 01:44:27;;;;;;;4.50;4.10;;;12.30;98.60;;;;;;5111672;27;20204;-52
2021/03/27 01:47:24;;;;;;;4.57;4.18;;;12.20;98.90;;;;;;5108626;27;20275;-51
2021/03/27 01:50:08;;;;;;;4.30;3.90;;;12.10;99.30;;;;;;5100272;28;20206;-51
2021/03/27 01:53:11;;;;;;;4.60;4.20;;;11.90;99.90;;;;;;5103542;27;20193;-51
2021/03/27 01:55:56;;;;;;;6.50;4.85;;;12.20;99.90;;;;;;5108538;27;20735;-52
2021/03/27 01:58:28;;;;;;;5.15;4.65;;;12.20;99.90;;;;;;5104672;27;20204;-52
2021/03/27 02:01:20;;;;;;;4.88;4.40;;;12.00;99.90;;;;;;5100749;28;20220;-51
2021/03/27 02:03:47;;;;;;;5.47;4.97;;;12.00;99.90;;;;;;5096229;27;20255;-51
2021/03/27 02:06:20;;;;;;;5.07;4.57;;;11.90;99.90;;;;;;5092042;28;20184;-52
2021/03/27 02:09:13;;;;;;;5.47;4.97;;;11.90;99.90;;;;;;5105836;27;20217;-52
2021/03/27 02:12:08;;;;;;;4.55;4.15;;;11.70;99.90;;;;;;5112030;27;20202;-52
2021/03/27 02:14:43;;;;;;;5.28;4.78;;;12.00;99.90;;;;;;5091977;28;20541;-52
2021/03/27 02:17:16;;;;;;;5.25;4.75;;;11.90;99.90;;;;;;5109280;27;20607;-52
2021/03/27 02:19:50;;;;;;;6.63;5.10;;;11.50;99.90;;;;;;5101565;28;20214;-51
2021/03/27 02:22:50;;;;;;;5.93;4.70;;;11.70;99.90;;;;;;5094989;28;20260;-52
2021/03/27 02:25:28;;;;;;;5.93;5.10;;;11.70;99.90;;;;;;5078598;28;20220;-52
2021/03/27 02:28:17;;;;;;;6.50;5.28;;;11.80;99.90;;;;;;5109311;28;20236;-50
2021/03/27 02:30:50;;;;;;;5.68;5.10;;;11.50;99.90;;;;;;5111304;27;20189;-52
2021/03/27 02:33:41;;;;;;;5.95;5.35;;;11.60;99.90;;;;;;5107896;27;20183;-51
2021/03/27 02:36:31;;;;;;;6.85;5.75;;;11.60;99.90;;;;;;5115729;27;20542;-52
2021/03/27 02:39:18;;;;;;;5.53;5.03;;;11.50;99.90;;;;;;5123130;27;20202;-52
2021/03/27 02:41:57;;;;;;;7.63;5.95;;;11.40;99.90;;;;;;5101616;28;20208;-52
2021/03/27 02:44:38;;;;;;;6.05;5.47;;;11.10;99.90;;;;;;5094104;28;20733;-52
2021/03/27 02:47:41;;;;;;;5.47;4.97;;;11.30;99.90;;;;;;5107661;28;20264;-52
2021/03/27 02:50:15;;;;;;;5.63;4.82;;;11.60;99.90;;;;;;5096410;28;20231;-52
2021/03/27 02:53:08;;;;;;;5.28;4.78;;;11.40;99.90;;;;;;5105878;28;20178;-53
2021/03/27 02:55:43;;;;;;;4.90;4.50;;;11.50;99.90;;;;;;5101570;28;20220;-51
2021/03/27 02:58:29;;;;;;;6.40;4.50;;;11.50;99.90;;;;;;5104371;28;20195;-51
2021/03/27 03:01:10;;;;;;;5.00;4.50;;;11.30;99.90;;;;;;5098410;28;20649;-50
2021/03/27 03:03:47;;;;;;;5.10;4.60;;;11.50;99.90;;;;;;5108308;28;20208;-51
2021/03/27 03:06:26;;;;;;;4.90;4.40;;;11.20;99.90;;;;;;5091468;28;20506;-51
2021/03/27 03:09:14;;;;;;;4.20;3.90;;;11.10;99.90;;;;;;5100945;28;20196;-50
2021/03/27 03:11:56;;;;;;;4.75;4.22;;;11.20;99.90;;;;;;5096471;28;20220;-50
2021/03/27 03:14:37;;;;;;;5.32;4.25;;;11.40;99.90;;;;;;5108145;28;20262;-51
2021/03/27 03:17:22;;;;;;;4.70;4.18;;;11.40;99.90;;;;;;5096844;28;20662;-51
2021/03/27 03:20:10;;;;;;;4.85;4.00;;;11.10;99.90;;;;;;5097992;28;20206;-51
2021/03/27 03:23:02;;;;;;;7.10;4.85;;;11.20;99.90;;;;;;5091054;28;20188;-51
2021/03/27 03:25:31;;;;;;;4.25;3.85;;;11.10;99.90;;;;;;5102269;28;20275;-51
2021/03/27 03:28:09;;;;;;;4.35;4.00;;;11.30;99.90;;;;;;5094265;28;20194;-50
2021/03/27 03:30:58;;;;;;;4.38;4.00;;;10.90;99.90;;;;;;5110288;28;20179;-51
2021/03/27 03:33:29;;;;;;;4.85;4.45;;;11.10;99.90;;;;;;5108419;28;20189;-50
2021/03/27 03:35:59;;;;;;;3.90;3.60;;;11.40;99.90;;;;;;5098757;28;20237;-50
2021/03/27 03:39:12;;;;;;;4.50;3.33;;;11.20;99.90;;;;;;5097713;28;20262;-51
2021/03/27 03:41:56;;;;;;;5.18;4.68;;;11.20;99.90;;;;;;5024719;27;20282;-51
2021/03/27 03:44:50;;;;;;;4.90;4.40;;;11.30;99.90;;;;;;5114982;27;20211;-51
2021/03/27 03:47:47;;;;;;;4.90;4.47;;;11.10;99.90;;;;;;5103126;27;20271;-51
2021/03/27 03:50:27;;;;;;;4.30;3.63;;;11.20;99.90;;;;;;5111138;27;20182;-51
2021/03/27 03:53:02;;;;;;;2.88;2.67;;;11.00;99.90;;;;;;5099929;27;20227;-50
2021/03/27 03:55:40;;;;;;;3.35;2.00;;;10.90;99.90;;;;;;5123763;27;20200;-50
2021/03/27 03:58:17;;;;;;;2.10;1.58;;;10.60;99.90;;;;;;5110949;27;20236;-50
2021/03/27 04:01:03;;;;;;;1.48;1.30;;;10.60;99.90;;;;;;5103877;27;20180;-51
2021/03/27 04:03:53;;;;;;;1.25;1.15;;;10.40;99.90;;;;;;5104265;27;20259;-51
2021/03/27 04:06:25;;;;;;;1.05;0.95;;;10.10;99.90;;;;;;5106022;27;20176;-50
2021/03/27 04:09:15;;;;;;;1.08;0.98;;;10.30;99.90;;;;;;5105275;28;20201;-50
2021/03/27 04:12:03;;;;;;;0.90;0.80;;;10.10;99.90;;;;;;5105654;27;20177;-51
2021/03/27 04:14:46;;;;;;;0.93;0.70;;;10.20;99.90;;;;;;5102851;27;20199;-52
2021/03/27 04:17:16;;;;;;;1.48;1.20;;;10.20;99.90;;;;;;5112353;27;20187;-51
2021/03/27 04:19:51;;;;;;;0.90;0.80;;;9.90;99.90;;;;;;5093401;27;20305;-51
2021/03/27 04:22:38;;;;;;;1.13;1.02;;;9.90;99.90;;;;;;5101561;27;20182;-51
2021/03/27 04:25:24;;;;;;;1.80;0.70;;;9.90;99.90;;;;;;5120127;27;20207;-53
2021/03/27 04:28:18;;;;;;;1.50;1.23;;;9.70;99.90;;;;;;5097123;28;20187;-51
2021/03/27 04:31:02;;;;;;;1.30;1.10;;;9.80;99.90;;;;;;5096253;27;20191;-51
2021/03/27 04:33:49;;;;;;;0.80;0.80;;;9.90;99.90;;;;;;5102466;27;20190;-50
2021/03/27 04:36:24;;;;;;;1.45;0.95;;;9.80;99.90;;;;;;5110048;27;20187;-51
2021/03/27 04:38:58;;;;;;;1.25;0.70;;;10.00;99.90;;;;;;5093670;27;20263;-51
2021/03/27 04:41:47;;;;;;;1.00;0.80;;;9.80;99.90;;;;;;5093625;28;20597;-52
2021/03/27 04:44:31;;;;;;;1.23;0.70;;;9.80;99.90;;;;;;5107759;27;20430;-53
2021/03/27 04:47:05;;;;;;;0.80;0.80;;;9.70;99.90;;;;;;5112039;27;20180;-50
2021/03/27 04:49:36;;;;;;;0.80;0.80;;;9.50;99.90;;;;;;5106788;27;20209;-50
2021/03/27 04:52:11;;;;;;;2.00;0.70;;;9.40;99.90;;;;;;5094536;27;20607;-51
2021/03/27 04:54:48;;;;;;;1.10;1.00;;;9.60;99.90;;;;;;5092985;27;20176;-50
2021/03/27 04:57:33;;;;;;;1.38;0.90;;;9.30;99.90;;;;;;5102187;28;20270;-51
2021/03/27 05:00:21;;;;;;;0.77;0.70;;;9.40;99.90;;;;;;5103067;27;20183;-51
2021/03/27 05:02:59;;;;;;;1.08;0.80;;;9.50;99.90;;;;;;5109070;28;20275;-52
2021/03/27 05:05:54;;;;;;;1.50;1.00;;;9.20;99.90;;;;;;5107408;27;20659;-50
2021/03/27 05:08:55;;;;;;;1.33;0.70;;;9.20;99.90;;;;;;5109991;27;20204;-51
2021/03/27 05:11:36;;;;;;;1.45;0.70;;;9.40;99.90;;;;;;5118415;27;20179;-52
2021/03/27 05:14:39;;;;;;;1.60;0.68;;;9.40;99.90;;;;;;5098218;27;20199;-52
2021/03/27 05:17:33;;;;;;;0.90;0.70;;;9.10;99.90;;;;;;5128723;27;20724;-52
2021/03/27 05:20:23;;;;;;;0.88;0.75;;;9.00;99.90;;;;;;5104615;27;20260;-50
2021/03/27 05:23:16;;;;;;;1.75;0.95;;;9.00;99.90;;;;;;5108121;27;20535;-50
2021/03/27 05:25:45;;;;;;;1.52;0.80;;;9.20;99.90;;;;;;5104188;27;20288;-52
2021/03/27 05:28:32;;;;;;;1.67;0.80;;;9.00;99.90;;;;;;5097662;28;20200;-51
2021/03/27 05:31:26;;;;;;;1.08;0.80;;;9.20;99.90;;;;;;5126416;27;20709;-52
2021/03/27 05:34:18;;;;;;;0.80;0.70;;;9.10;99.90;;;;;;5105737;27;20206;-53
2021/03/27 05:37:08;;;;;;;0.80;0.77;;;8.90;99.90;;;;;;5088688;27;20199;-51
2021/03/27 05:39:36;;;;;;;1.95;1.85;;;9.10;99.90;;;;;;5104456;28;20217;-51
2021/03/27 05:42:21;;;;;;;1.23;0.80;;;9.00;99.90;;;;;;5107369;27;20273;-51
2021/03/27 05:45:13;;;;;;;1.30;1.05;;;9.10;99.90;;;;;;5100937;27;20207;-51
2021/03/27 05:47:51;;;;;;;0.70;0.60;;;9.20;99.90;;;;;;5126429;27;20176;-54
2021/03/27 05:50:45;;;;;;;0.70;0.70;;;9.00;99.90;;;;;;5102147;27;20187;-52
2021/03/27 05:53:48;;;;;;;0.80;0.70;;;9.10;99.90;;;;;;5111566;27;20194;-53
2021/03/27 05:56:33;;;;;;;1.10;1.00;;;9.10;99.90;;;;;;5110364;27;20186;-53
2021/03/27 05:59:20;;;;;;;0.90;0.80;;;9.00;99.90;;;;;;5099605;27;20734;-52
2021/03/27 06:01:51;;;;;;;1.05;0.63;;;9.00;99.90;;;;;;5111653;27;20197;-51
2021/03/27 06:04:47;;;;;;;1.23;0.65;;;9.00;99.90;;;;;;5095891;27;20564;-51
2021/03/27 06:07:41;;;;;;;1.00;0.68;;;8.90;99.90;;;;;;5106968;27;20186;-51
2021/03/27 06:10:12;;;;;;;0.90;0.80;;;9.00;99.90;;;;;;5104925;27;20555;-53
2021/03/27 06:13:04;;;;;;;0.82;0.82;;;9.00;99.90;;;;;;5095897;28;20187;-52
2021/03/27 06:16:04;;;;;;;1.00;0.85;;;9.10;99.80;;;;;;5096553;28;20192;-51
2021/03/27 06:18:57;;;;;;;2.80;0.90;;;9.00;99.30;;;;;;5123462;27;20195;-52
2021/03/27 06:21:28;;;;;;;1.08;0.70;;;8.90;98.70;;;;;;5098275;27;20197;-52
2021/03/27 06:24:19;;;;;;;1.10;0.85;;;9.00;98.80;;;;;;5102344;27;20199;-52
2021/03/27 06:27:26;;;;;;;1.13;0.75;;;9.00;98.50;;;;;;5104297;28;20666;-56
2021/03/27 06:30:11;;;;;;;1.73;0.95;;;9.10;98.40;;;;;;5101108;28;20264;-55
2021/03/27 06:32:57;;;;;;;0.90;0.70;;;9.10;98.30;;;;;;5106854;27;20211;-51
2021/03/27 06:35:54;;;;;;;3.08;1.95;;;8.80;99.00;;;;;;5103570;28;20175;-52
2021/03/27 06:38:41;;;;;;;1.73;0.85;;;8.80;99.50;;;;;;5122115;27;20199;-51
2021/03/27 06:41:16;;;;;;;1.00;0.82;;;8.80;99.90;;;;;;5111896;27;20278;-52
2021/03/27 06:44:00;;;;;;;1.70;0.70;;;8.70;99.90;;;;;;5126844;27;20471;-53
2021/03/27 06:46:53;;;;;;;2.35;0.90;;;8.60;99.90;;;;;;5124746;28;20182;-54
2021/03/27 06:49:53;;;;;;;1.30;0.80;;;8.50;99.90;;;;;;5127511;28;20199;-54
2021/03/27 06:52:43;;;;;;;0.90;0.80;;;8.80;99.90;;;;;;5125351;28;20184;-53
2021/03/27 06:55:32;;;;;;;1.17;0.90;;;9.00;99.20;;;;;;5101692;28;20183;-54
2021/03/27 06:58:30;;;;;;;1.05;0.85;;;9.30;98.20;;;;;;5122992;28;20203;-54
2021/03/27 07:01:17;;;;;;;2.03;0.60;;;9.70;98.10;;;;;;5111550;28;20201;-53
2021/03/27 07:04:08;;;;;;;1.10;1.00;;;9.60;96.80;;;;;;5096363;28;20235;-53
2021/03/27 07:07:11;;;;;;;1.50;0.80;;;9.40;94.50;;;;;;5110498;28;20187;-53
2021/03/27 07:09:37;;;;;;;1.83;0.80;;;9.50;94.90;;;;;;5094184;27;20199;-53
2021/03/27 07:12:25;;;;;;;1.30;0.80;;;9.70;94.40;;;;;;5102631;28;20195;-54
2021/03/27 07:15:18;;;;;;;1.23;0.80;;;10.30;92.80;;;;;;5053598;28;20223;-53
2021/03/27 07:18:02;;;;;;;1.20;0.90;;;10.30;91.20;;;;;;5105486;27;20185;-53
2021/03/27 07:20:40;;;;;;;3.50;1.48;;;10.40;90.80;;;;;;5094636;28;20181;-53
2021/03/27 07:23:27;;;;;;;1.10;1.00;;;10.30;90.10;;;;;;5105569;27;20172;-53
2021/03/27 07:26:20;;;;;;;1.27;0.93;;;10.50;88.80;;;;;;5108084;27;20575;-52
2021/03/27 07:29:04;;;;;;;0.85;0.73;;;10.50;88.30;;;;;;5107208;27;20198;-51
2021/03/27 07:32:14;;;;;;;2.00;0.80;;;10.70;89.20;;;;;;5104527;27;20671;-51
2021/03/27 07:35:01;;;;;;;0.80;0.70;;;11.10;88.50;;;;;;5095848;27;20222;-53
2021/03/27 07:38:04;;;;;;;0.90;0.80;;;11.10;84.70;;;;;;5128558;27;20263;-52
2021/03/27 07:40:41;;;;;;;1.30;1.20;;;10.50;82.80;;;;;;5117153;27;20186;-52
2021/03/27 07:43:50;;;;;;;1.75;0.70;;;11.10;83.70;;;;;;5102043;27;20210;-51
2021/03/27 07:46:16;;;;;;;1.33;0.73;;;12.80;78.60;;;;;;5113900;27;20171;-52
2021/03/27 07:48:48;;;;;;;1.90;1.07;;;15.00;71.70;;;;;;5100547;27;20203;-50
2021/03/27 07:51:23;;;;;;;1.95;1.60;;;16.00;65.50;;;;;;5113038;27;20639;-50
2021/03/27 07:54:27;;;;;;;1.38;0.75;;;16.90;59.50;;;;;;5137944;27;20198;-51
2021/03/27 07:57:11;;;;;;;1.50;0.80;;;17.10;57.10;;;;;;5108394;28;20219;-52
2021/03/27 08:00:31;;;;;;;1.20;0.80;;;17.50;55.60;;;;;;5130996;27;20682;-51
2021/03/27 08:03:28;;;;;;;1.13;0.60;;;17.80;54.50;;;;;;5056501;28;20212;-52
2021/03/27 08:06:09;;;;;;;1.13;0.73;;;17.00;55.00;;;;;;5102211;27;20459;-53
2021/03/27 08:08:53;;;;;;;1.70;1.00;;;15.50;57.30;;;;;;5107638;27;20202;-52
2021/03/27 08:11:37;;;;;;;1.45;0.63;;;14.60;59.00;;;;;;5105486;27;20258;-51
2021/03/27 08:14:12;;;;;;;0.98;0.80;;;13.70;61.70;;;;;;5107690;27;20184;-54
2021/03/27 08:17:07;;;;;;;2.08;0.85;;;13.40;64.10;;;;;;5099521;27;20199;-54
2021/03/27 08:19:54;;;;;;;1.83;0.90;;;13.30;65.70;;;;;;5069865;27;20213;-53
2021/03/27 08:22:49;;;;;;;1.20;0.70;;;13.20;66.20;;;;;;5120194;27;20632;-54
2021/03/27 08:25:47;;;;;;;1.98;0.70;;;13.20;65.80;;;;;;5075916;28;20705;-54
2021/03/27 08:28:50;;;;;;;2.00;1.05;;;12.90;64.50;;;;;;5097230;28;20578;-54
2021/03/27 08:31:21;;;;;;;0.80;0.70;;;12.90;65.40;;;;;;5120741;27;20174;-54
2021/03/27 08:34:19;;;;;;;0.90;0.80;;;12.60;65.30;;;;;;5099633;27;20182;-54
2021/03/27 08:36:58;;;;;;;1.95;0.90;;;13.00;66.10;;;;;;5104336;27;20598;-53
2021/03/27 08:39:42;;;;;;;2.97;1.00;;;13.10;64.40;;;;;;5105353;27;20202;-54
2021/03/27 08:42:26;;;;;;;1.33;0.82;;;13.20;59.60;;;;;;5094462;27;20207;-54
2021/03/27 08:44:58;;;;;;;0.95;0.82;;;13.40;58.50;;;;;;5095089;27;20291;-54
2021/03/27 08:48:05;;;;;;;1.45;0.70;;;13.50;58.00;;;;;;5101139;27;20274;-54
2021/03/27 08:51:06;;;;;;;1.52;1.00;;;14.00;56.60;;;;;;5100003;28;20302;-54
2021/03/27 08:54:09;;;;;;;2.80;0.73;;;14.50;55.20;;;;;;5074654;27;20188;-54
2021/03/27 08:56:35;;;;;;;1.27;0.80;;;14.60;53.10;;;;;;5099962;27;20277;-54
2021/03/27 08:59:19;;;;;;;3.93;0.80;;;14.20;53.60;;;;;;5104628;27;20636;-54
2021/03/27 09:01:57;;;;;;;2.30;0.70;;;14.10;53.60;;;;;;5102801;27;20277;-54
2021/03/27 09:04:35;;;;;;;3.30;1.20;;;13.90;53.30;;;;;;5093951;27;20199;-54
2021/03/27 09:07:16;;;;;;;1.70;0.70;;;13.80;54.30;;;;;;5104957;28;20209;-54
2021/03/27 09:09:59;;;;;;;2.65;0.80;;;13.10;54.30;;;;;;5118763;27;20209;-58
2021/03/27 09:13:07;;;;;;;1.55;0.77;;;13.60;55.30;;;;;;5098894;28;20175;-54
2021/03/27 09:15:54;;;;;;;3.03;1.00;;;13.50;54.30;;;;;;5093092;28;20204;-54
2021/03/27 09:18:56;;;;;;;1.45;0.90;;;13.90;53.90;;;;;;5103687;27;20226;-54
2021/03/27 09:21:29;;;;;;;1.48;0.80;;;13.60;53.60;;;;;;5100653;27;20190;-54
2021/03/27 09:24:21;;;;;;;1.60;0.90;;;13.90;53.80;;;;;;5119752;27;20213;-53
2021/03/27 09:26:50;;;;;;;1.83;0.80;;;13.90;53.90;;;;;;5096597;27;20239;-54
2021/03/27 09:29:38;;;;;;;1.83;0.77;;;13.90;54.20;;;;;;5103384;27;20194;-54
2021/03/27 09:32:25;;;;;;;1.15;0.80;;;13.70;53.40;;;;;;5102500;27;20202;-54
2021/03/27 09:35:35;;;;;;;2.95;0.93;;;13.60;54.40;;;;;;5098196;27;20216;-54
2021/03/27 09:38:33;;;;;;;0.80;0.60;;;13.60;54.70;;;;;;5084830;27;20610;-54
2021/03/27 09:41:22;;;;;;;1.45;0.80;;;14.10;54.40;;;;;;5100784;27;20186;-54
2021/03/27 09:44:01;;;;;;;1.30;0.77;;;14.90;53.30;;;;;;5091331;27;20565;-55
2021/03/27 09:46:30;;;;;;;0.90;0.68;;;15.10;52.00;;;;;;5102743;27;20180;-54
2021/03/27 09:49:17;;;;;;;1.63;0.80;;;15.50;50.50;;;;;;5097710;27;20222;-54
2021/03/27 09:51:55;;;;;;;3.75;0.93;;;15.90;49.10;;;;;;5102707;27;20187;-54
2021/03/27 09:54:46;;;;;;;1.13;0.60;;;16.60;48.30;;;;;;5101615;27;20651;-54
2021/03/27 09:57:45;;;;;;;0.82;0.77;;;17.10;46.70;;;;;;5101336;27;20201;-54
2021/03/27 10:00:19;;;;;;;3.67;1.13;;;17.20;46.30;;;;;;5096673;27;20179;-54
2021/03/27 10:03:15;;;;;;;1.42;0.70;;;17.00;45.90;;;;;;5093847;27;20307;-53
2021/03/27 10:06:08;;;;;;;1.65;0.93;;;16.80;47.10;;;;;;5097826;27;20190;-53
2021/03/27 10:08:41;;;;;;;3.25;2.95;;;16.70;46.40;;;;;;5101487;27;20738;-53
2021/03/27 10:11:22;;;;;;;1.35;0.80;;;15.90;45.30;;;;;;5105651;27;20176;-54
2021/03/27 10:14:16;;;;;;;0.70;0.60;;;15.00;45.90;;;;;;5097369;27;20175;-54
2021/03/27 10:17:17;;;;;;;1.40;0.70;;;14.80;48.30;;;;;;5096843;27;20318;-53
2021/03/27 10:20:20;;;;;;;2.20;0.80;;;14.10;47.70;;;;;;5089575;28;20218;-54
2021/03/27 10:23:03;;;;;;;2.45;1.02;;;13.70;49.80;;;;;;5103713;28;20187;-54
2021/03/27 10:26:02;;;;;;;2.45;1.00;;;13.30;49.40;;;;;;5101457;27;20183;-53
2021/03/27 10:28:34;;;;;;;0.85;0.73;;;12.80;49.40;;;;;;5103825;27;20287;-54
2021/03/27 10:31:10;;;;;;;0.80;0.80;;;12.70;50.10;;;;;;5113899;27;20539;-54
2021/03/27 10:33:39;;;;;;;1.70;0.77;;;13.20;51.10;;;;;;5098063;28;20186;-53
2021/03/27 10:36:40;;;;;;;2.70;2.25;;;13.80;49.10;;;;;;5098238;28;20188;-54
2021/03/27 10:39:16;;;;;;;1.35;0.70;;;13.90;48.60;;;;;;5093733;27;20206;-54
2021/03/27 10:41:53;;;;;;;3.00;0.80;;;13.80;48.80;;;;;;5102554;28;20186;-54
2021/03/27 10:44:43;;;;;;;0.93;0.70;;;13.50;49.40;;;;;;5090985;28;20199;-53
2021/03/27 10:47:20;;;;;;;2.72;1.25;;;13.30;49.60;;;;;;5118179;27;20213;-54
2021/03/27 10:50:05;;;;;;;1.23;0.73;;;13.30;50.00;;;;;;5090586;28;20207;-53
2021/03/27 10:53:09;;;;;;;1.25;0.70;;;13.90;49.90;;;;;;5116236;28;20178;-54
2021/03/27 10:56:02;;;;;;;3.22;1.33;;;13.90;47.70;;;;;;5094688;28;20682;-53
2021/03/27 10:58:37;;;;;;;1.40;0.52;;;14.70;47.40;;;;;;5100989;28;20208;-53
2021/03/27 11:01:17;;;;;;;1.10;0.60;;;15.00;47.30;;;;;;5091333;28;20179;-54
2021/03/27 11:03:55;;;;;;;1.33;1.15;;;15.80;46.50;;;;;;5100251;28;20281;-54
2021/03/27 11:06:35;;;;;;;1.23;1.05;;;16.90;43.10;;;;;;5094259;28;20231;-55
2021/03/27 11:09:04;;;;;;;1.45;0.80;;;15.90;42.90;;;;;;5105182;28;20194;-53
2021/03/27 11:11:42;;;;;;;1.45;0.90;;;15.60;45.10;;;;;;5098665;28;20176;-53
2021/03/27 11:14:29;;;;;;;1.50;0.85;;;15.60;45.40;;;;;;5100843;28;20182;-52
2021/03/27 11:17:10;;;;;;;1.58;1.25;;;15.40;47.70;;;;;;5100039;28;20286;-52
2021/03/27 11:19:39;;;;;;;1.33;0.80;;;15.80;47.20;;;;;;5100034;28;20745;-53
2021/03/27 11:22:22;;;;;;;1.30;0.90;;;15.10;47.30;;;;;;5100192;28;20188;-53
2021/03/27 11:25:07;;;;;;;1.55;0.88;;;14.60;47.50;;;;;;5104963;28;20206;-53
2021/03/27 11:27:48;;;;;;;1.35;0.80;;;14.40;48.60;;;;;;5106694;28;20202;-52
2021/03/27 11:30:22;;;;;;;0.85;0.70;;;14.10;48.80;;;;;;5096740;28;20175;-52
2021/03/27 11:33:27;;;;;;;1.25;0.70;;;14.60;49.30;;;;;;5106811;28;20183;-53
2021/03/27 11:35:55;;;;;;;1.80;1.10;;;14.40;48.40;;;;;;5097118;28;20255;-52
2021/03/27 11:38:32;;;;;;;1.80;0.90;;;13.70;49.20;;;;;;5107231;27;20285;-53
2021/03/27 11:41:01;;;;;;;1.35;0.80;;;14.00;49.50;;;;;;5129258;28;20635;-52
2021/03/27 11:43:40;;;;;;;3.45;1.10;;;14.10;49.20;;;;;;5102415;28;20247;-53
2021/03/27 11:46:27;;;;;;;2.28;1.00;;;13.70;49.60;;;;;;5103001;28;20179;-53
2021/03/27 11:49:01;;;;;;;1.80;0.93;;;13.80;50.00;;;;;;5099228;27;20745;-51
2021/03/27 11:51:48;;;;;;;3.03;0.90;;;13.50;50.60;;;;;;5125788;28;20540;-53
2021/03/27 11:54:35;;;;;;;1.02;0.80;;;13.30;50.80;;;;;;5116292;28;20782;-53
2021/03/27 11:57:22;;;;;;;1.25;0.77;;;13.10;51.30;;;;;;5105360;28;20195;-51
2021/03/27 12:03:11;;;;;;;1.10;0.95;;;12.80;50.70;;;;;;5123117;27;20240;-53
2021/03/27 12:05:58;;;;;;;1.63;0.82;;;12.80;51.60;;;;;;5106290;27;20171;-50
2021/03/27 12:08:47;;;;;;;3.88;1.00;;;13.20;51.70;;;;;;5103644;27;20233;-51
2021/03/27 12:11:57;;;;;;;1.77;0.70;;;12.90;51.00;;;;;;5123827;27;20186;-51
2021/03/27 12:14:40;;;;;;;1.65;0.90;;;12.70;51.10;;;;;;5022681;28;20622;-53
2021/03/27 12:17:21;;;;;;;1.60;1.50;;;12.60;51.90;;;;;;5102680;27;20672;-54
2021/03/27 12:20:31;;;;;;;1.83;0.93;;;12.80;52.40;;;;;;5102666;27;20209;-54
2021/03/27 12:23:21;;;;;;;1.20;1.10;;;12.50;52.70;;;;;;5043359;28;20180;-53
2021/03/27 12:25:55;;;;;;;1.40;1.15;;;12.50;52.80;;;;;;5122649;27;20194;-53
2021/03/27 12:28:40;;;;;;;1.95;1.42;;;12.60;52.20;;;;;;5109954;27;20286;-51
2021/03/27 12:31:28;;;;;;;3.25;1.45;;;12.60;52.30;;;;;;5095480;28;20557;-52
2021/03/27 12:34:34;;;;;;;1.23;0.93;;;12.40;52.20;;;;;;5112541;27;20662;-53
2021/03/27 12:37:26;;;;;;;3.28;1.80;;;12.70;51.80;;;;;;5090981;27;20388;-52
2021/03/27 12:40:14;;;;;;;1.77;1.00;;;12.50;51.70;;;;;;5101943;28;20207;-52
2021/03/27 12:43:03;;;;;;;1.40;1.00;;;12.50;52.20;;;;;;5102725;27;20187;-52
2021/03/27 12:45:36;;;;;;;2.35;0.80;;;12.80;51.90;;;;;;5092376;27;20190;-53
2021/03/27 12:48:24;;;;;;;1.65;1.10;;;13.00;51.40;;;;;;5107187;28;20202;-50
2021/03/27 12:51:13;;;;;;;1.63;0.85;;;12.30;51.30;;;;;;5110470;27;20210;-53
2021/03/27 12:53:59;;;;;;;2.05;0.95;;;12.80;51.50;;;;;;5103901;27;20269;-54
2021/03/27 12:56:28;;;;;;;5.68;1.38;;;13.00;51.50;;;;;;5109072;27;20190;-53
2021/03/27 12:59:06;;;;;;;1.73;1.38;;;12.90;50.50;;;;;;5104090;27;20202;-54
2021/03/27 13:01:38;;;;;;;0.90;0.70;;;12.80;49.80;;;;;;5109616;27;20575;-53
2021/03/27 13:04:35;;;;;;;1.55;0.73;;;12.20;49.40;;;;;;5109963;27;20293;-53
2021/03/27 13:07:23;;;;;;;0.80;0.77;;;12.80;50.00;;;;;;5100359;27;20182;-53
2021/03/27 13:09:56;;;;;;;2.63;0.70;;;12.80;49.80;;;;;;5102584;27;20202;-54
2021/03/27 13:12:26;;;;;;;2.72;1.70;;;13.00;50.30;;;;;;5104209;27;20315;-53
2021/03/27 13:15:13;;;;;;;2.38;0.90;;;13.40;50.90;;;;;;5095586;27;20190;-53
2021/03/27 13:17:59;;;;;;;1.80;0.80;;;13.40;50.50;;;;;;5099091;27;20641;-54
2021/03/27 13:20:28;;;;;;;1.42;0.90;;;13.30;49.60;;;;;;5100649;27;20232;-52
2021/03/27 13:23:09;;;;;;;1.70;1.00;;;13.10;49.00;;;;;;5094319;27;20538;-53
2021/03/27 13:25:39;;;;;;;1.15;0.90;;;13.10;49.10;;;;;;5103971;27;20310;-53
2021/03/27 13:28:17;;;;;;;1.30;1.08;;;12.90;49.00;;;;;;5106764;27;20206;-53
2021/03/27 13:30:51;;;;;;;3.15;1.58;;;12.90;50.00;;;;;;5109528;27;20323;-53
2021/03/27 13:33:20;;;;;;;1.17;0.95;;;13.10;49.80;;;;;;5106658;27;20171;-52
2021/03/27 13:35:52;;;;;;;3.38;1.30;;;13.00;49.70;;;;;;5105982;27;20590;-52
2021/03/27 13:38:32;;;;;;;2.95;0.90;;;13.50;50.30;;;;;;5098945;28;20203;-54
2021/03/27 13:41:07;;;;;;;2.13;1.10;;;13.60;50.00;;;;;;5094279;27;20178;-53
2021/03/27 13:43:42;;;;;;;1.48;0.85;;;13.40;49.00;;;;;;5106759;27;20229;-53
2021/03/27 13:46:26;;;;;;;1.50;1.10;;;13.50;49.40;;;;;;5100504;27;20211;-53
2021/03/27 13:49:11;;;;;;;2.60;0.88;;;13.60;49.80;;;;;;5108065;27;20340;-53
2021/03/27 13:51:52;;;;;;;2.83;1.10;;;13.70;49.60;;;;;;5097687;27;20190;-53
2021/03/27 13:54:36;;;;;;;1.65;1.02;;;13.70;49.80;;;;;;5100492;27;20698;-53
2021/03/27 13:57:30;;;;;;;2.17;1.52;;;13.60;50.10;;;;;;5102181;27;20416;-53
2021/03/27 14:00:18;;;;;;;2.35;1.30;;;13.50;50.10;;;;;;5096192;27;20263;-52
2021/03/27 14:03:04;;;;;;;2.78;1.50;;;13.50;50.80;;;;;;5101212;28;20199;-53
2021/03/27 14:06:05;;;;;;;2.25;1.10;;;13.60;49.90;;;;;;5106358;27;20672;-54
2021/03/27 14:09:08;;;;;;;3.33;1.80;;;13.20;50.20;;;;;;5075838;28;20218;-52
2021/03/27 14:11:56;;;;;;;2.00;1.27;;;13.30;50.30;;;;;;5110765;27;20186;-53
2021/03/27 14:14:45;;;;;;;1.33;1.20;;;13.20;49.90;;;;;;5100525;27;20643;-53
2021/03/27 14:17:33;;;;;;;1.65;0.90;;;13.10;49.70;;;;;;5087604;27;20286;-53
2021/03/27 14:20:20;;;;;;;3.90;1.55;;;13.60;49.40;;;;;;5115904;27;20202;-51